sensor_id;sensor_type;location;lat;lon;timestamp;pressure;altitude;pressure_sealevel;temperature;humidity
55291;BME280;41155;39.768;2.712;2023-04-01T00:02:06;101146.66;;;20.07;44.37
55291;BME280;41155;39.768;2.712;2023-04-01T00:04:32;101165.94;;;20.16;44.55
55291;BME280;41155;39.768;2.712;2023-04-01T00:06:58;101137.94;;;19.91;44.59
55291;BME280;41155;39.768;2.712;2023-04-01T00:09:25;101103.19;;;19.73;44.80
55291;BME280;41155;39.768;2.712;2023-04-01T00:11:51;101144.50;;;19.90;45.08
55291;BME280;41155;39.768;2.712;2023-04-01T00:14:16;101164.63;;;19.99;45.49
55291;BME280;41155;39.768;2.712;2023-04-01T00:16:42;101171.53;;;19.97;45.38
55291;BME280;41155;39.768;2.712;2023-04-01T00:19:07;101142.59;;;19.77;45.60
55291;BME280;41155;39.768;2.712;2023-04-01T00:21:33;101165.72;;;19.84;45.72
55291;BME280;41155;39.768;2.712;2023-04-01T00:23:58;101160.63;;;19.78;45.89
55291;BME280;41155;39.768;2.712;2023-04-01T00:26:24;101150.38;;;19.70;45.74
55291;BME280;41155;39.768;2.712;2023-04-01T00:28:50;101136.03;;;19.59;45.83
55291;BME280;41155;39.768;2.712;2023-04-01T00:31:16;101143.09;;;19.65;46.03
55291;BME280;41155;39.768;2.712;2023-04-01T00:33:42;101150.97;;;19.67;46.24
55291;BME280;41155;39.768;2.712;2023-04-01T00:36:16;101144.53;;;19.57;46.54
55291;BME280;41155;39.768;2.712;2023-04-01T00:38:43;101118.84;;;19.39;46.44
55291;BME280;41155;39.768;2.712;2023-04-01T00:41:10;101127.88;;;19.40;46.67
55291;BME280;41155;39.768;2.712;2023-04-01T00:43:39;101139.03;;;19.43;46.78
55291;BME280;41155;39.768;2.712;2023-04-01T00:46:08;101145.84;;;19.46;47.08
55291;BME280;41155;39.768;2.712;2023-04-01T00:48:36;101114.06;;;19.31;47.08
55291;BME280;41155;39.768;2.712;2023-04-01T00:51:14;101123.00;;;19.37;47.13
55291;BME280;41155;39.768;2.712;2023-04-01T00:53:47;101142.38;;;19.40;47.42
55291;BME280;41155;39.768;2.712;2023-04-01T00:56:19;101138.41;;;19.33;47.56
55291;BME280;41155;39.768;2.712;2023-04-01T00:58:52;101161.03;;;19.38;47.66
55291;BME280;41155;39.768;2.712;2023-04-01T01:01:22;101150.97;;;19.34;47.88
55291;BME280;41155;39.768;2.712;2023-04-01T01:03:48;101163.53;;;19.35;47.74
55291;BME280;41155;39.768;2.712;2023-04-01T01:06:26;101173.56;;;19.26;47.85
55291;BME280;41155;39.768;2.712;2023-04-01T01:14:27;101185.88;;;18.90;47.60
55291;BME280;41155;39.768;2.712;2023-04-01T01:17:32;101182.25;;;18.95;48.13
55291;BME280;41155;39.768;2.712;2023-04-01T01:20:19;101176.69;;;19.00;47.94
55291;BME280;41155;39.768;2.712;2023-04-01T01:36:33;101205.84;;;19.10;47.76
55291;BME280;41155;39.768;2.712;2023-04-01T01:39:04;101128.00;;;18.40;47.71
55291;BME280;41155;39.768;2.712;2023-04-01T01:41:32;101246.59;;;19.11;47.61
55291;BME280;41155;39.768;2.712;2023-04-01T01:43:59;101231.94;;;19.02;47.71
55291;BME280;41155;39.768;2.712;2023-04-01T01:46:29;101231.41;;;19.00;47.74
55291;BME280;41155;39.768;2.712;2023-04-01T01:48:57;101253.59;;;18.80;48.18
55291;BME280;41155;39.768;2.712;2023-04-01T01:51:26;101276.91;;;18.96;48.00
55291;BME280;41155;39.768;2.712;2023-04-01T01:53:53;101258.63;;;18.91;47.94
55291;BME280;41155;39.768;2.712;2023-04-01T01:56:20;101242.16;;;18.72;47.87
55291;BME280;41155;39.768;2.712;2023-04-01T01:58:50;101271.38;;;18.77;47.29
55291;BME280;41155;39.768;2.712;2023-04-01T02:01:21;101269.41;;;18.83;48.00
55291;BME280;41155;39.768;2.712;2023-04-01T02:03:50;101266.41;;;18.84;48.36
55291;BME280;41155;39.768;2.712;2023-04-01T02:06:19;101219.59;;;18.62;48.19
55291;BME280;41155;39.768;2.712;2023-04-01T02:08:54;101256.09;;;18.76;48.00
55291;BME280;41155;39.768;2.712;2023-04-01T02:11:27;101264.75;;;18.83;47.71
55291;BME280;41155;39.768;2.712;2023-04-01T02:13:56;101260.03;;;18.89;47.77
55291;BME280;41155;39.768;2.712;2023-04-01T02:16:38;101220.13;;;18.64;47.67
55291;BME280;41155;39.768;2.712;2023-04-01T02:19:07;101228.09;;;18.60;47.69
55291;BME280;41155;39.768;2.712;2023-04-01T02:21:35;101253.38;;;18.71;47.96
55291;BME280;41155;39.768;2.712;2023-04-01T02:24:04;101227.94;;;18.51;48.35
55291;BME280;41155;39.768;2.712;2023-04-01T02:26:31;101269.41;;;18.83;48.36
55291;BME280;41155;39.768;2.712;2023-04-01T02:28:59;101266.22;;;18.76;48.27
55291;BME280;41155;39.768;2.712;2023-04-01T02:31:25;101274.88;;;18.83;48.43
55291;BME280;41155;39.768;2.712;2023-04-01T02:33:51;101243.09;;;18.63;48.00
55291;BME280;41155;39.768;2.712;2023-04-01T02:36:17;101268.81;;;18.86;48.18
55291;BME280;41155;39.768;2.712;2023-04-01T02:38:44;101275.34;;;18.90;48.44
55291;BME280;41155;39.768;2.712;2023-04-01T02:41:11;101265.97;;;18.96;48.57
55291;BME280;41155;39.768;2.712;2023-04-01T02:43:36;101269.72;;;19.00;48.45
55291;BME280;41155;39.768;2.712;2023-04-01T02:46:02;101240.97;;;18.84;48.20
55291;BME280;41155;39.768;2.712;2023-04-01T02:48:28;101255.09;;;18.91;48.30
55291;BME280;41155;39.768;2.712;2023-04-01T02:50:54;101240.97;;;18.84;48.47
55291;BME280;41155;39.768;2.712;2023-04-01T02:53:19;101246.66;;;18.87;48.60
55291;BME280;41155;39.768;2.712;2023-04-01T02:55:45;101262.69;;;18.94;48.36
55291;BME280;41155;39.768;2.712;2023-04-01T02:58:11;101257.22;;;18.94;48.46
55291;BME280;41155;39.768;2.712;2023-04-01T03:00:37;101258.41;;;18.88;48.46
55291;BME280;41155;39.768;2.712;2023-04-01T03:03:03;101260.63;;;18.86;48.74
55291;BME280;41155;39.768;2.712;2023-04-01T03:05:30;101276.81;;;18.82;49.03
55291;BME280;41155;39.768;2.712;2023-04-01T03:07:55;101214.47;;;18.31;48.77
55291;BME280;41155;39.768;2.712;2023-04-01T03:10:21;101265.84;;;18.58;48.54
55291;BME280;41155;39.768;2.712;2023-04-01T03:12:46;101282.22;;;18.63;48.55
55291;BME280;41155;39.768;2.712;2023-04-01T03:15:13;101278.16;;;18.61;49.25
55291;BME280;41155;39.768;2.712;2023-04-01T03:17:41;101253.34;;;18.52;49.10
55291;BME280;41155;39.768;2.712;2023-04-01T03:20:07;101239.22;;;18.45;48.83
55291;BME280;41155;39.768;2.712;2023-04-01T03:22:34;101256.53;;;18.59;48.99
55291;BME280;41155;39.768;2.712;2023-04-01T03:25:03;101266.09;;;18.62;49.02
55291;BME280;41155;39.768;2.712;2023-04-01T03:27:29;101257.88;;;18.62;48.90
55291;BME280;41155;39.768;2.712;2023-04-01T03:29:55;101251.28;;;18.63;49.18
55291;BME280;41155;39.768;2.712;2023-04-01T03:32:20;101196.50;;;18.25;49.28
55291;BME280;41155;39.768;2.712;2023-04-01T03:34:46;101258.69;;;18.62;49.24
55291;BME280;41155;39.768;2.712;2023-04-01T03:37:12;101261.56;;;18.52;49.32
55291;BME280;41155;39.768;2.712;2023-04-01T03:39:37;101272.50;;;18.52;49.41
55291;BME280;41155;39.768;2.712;2023-04-01T03:42:03;101270.56;;;18.52;49.42
55291;BME280;41155;39.768;2.712;2023-04-01T03:44:32;101246.72;;;18.34;49.51
55291;BME280;41155;39.768;2.712;2023-04-01T03:46:58;101270.34;;;18.49;49.57
55291;BME280;41155;39.768;2.712;2023-04-01T03:49:24;101276.91;;;18.48;49.69
55291;BME280;41155;39.768;2.712;2023-04-01T03:51:49;101243.75;;;18.30;49.54
55291;BME280;41155;39.768;2.712;2023-04-01T03:54:14;101257.91;;;18.38;49.48
55291;BME280;41155;39.768;2.712;2023-04-01T03:56:40;101278.59;;;18.44;49.66
55291;BME280;41155;39.768;2.712;2023-04-01T03:59:07;101278.41;;;18.35;49.87
55291;BME280;41155;39.768;2.712;2023-04-01T04:01:33;101292.63;;;18.37;49.89
55291;BME280;41155;39.768;2.712;2023-04-01T04:03:58;101258.97;;;18.13;50.14
55291;BME280;41155;39.768;2.712;2023-04-01T04:06:25;101294.59;;;18.32;50.28
55291;BME280;41155;39.768;2.712;2023-04-01T04:08:51;101275.09;;;18.14;50.26
55291;BME280;41155;39.768;2.712;2023-04-01T04:11:17;101263.13;;;18.05;50.45
55291;BME280;41155;39.768;2.712;2023-04-01T04:13:43;101291.94;;;18.21;50.10
55291;BME280;41155;39.768;2.712;2023-04-01T04:16:10;101273.50;;;18.08;50.15
55291;BME280;41155;39.768;2.712;2023-04-01T04:18:36;101299.91;;;18.18;50.39
55291;BME280;41155;39.768;2.712;2023-04-01T04:21:03;101273.63;;;17.93;50.31
55291;BME280;41155;39.768;2.712;2023-04-01T04:23:29;101292.13;;;18.01;50.69
55291;BME280;41155;39.768;2.712;2023-04-01T04:26:10;101306.00;;;18.10;50.70
55291;BME280;41155;39.768;2.712;2023-04-01T04:28:36;101300.34;;;18.01;50.73
55291;BME280;41155;39.768;2.712;2023-04-01T04:31:05;101316.47;;;18.02;50.98
55291;BME280;41155;39.768;2.712;2023-04-01T04:33:31;101329.34;;;17.97;51.36
55291;BME280;41155;39.768;2.712;2023-04-01T04:35:58;101327.75;;;17.91;51.24
55291;BME280;41155;39.768;2.712;2023-04-01T04:38:25;101324.81;;;17.82;51.37
55291;BME280;41155;39.768;2.712;2023-04-01T04:40:51;101330.53;;;17.86;51.45
55291;BME280;41155;39.768;2.712;2023-04-01T04:43:17;101297.59;;;17.61;51.60
55291;BME280;41155;39.768;2.712;2023-04-01T04:45:43;101334.09;;;17.81;51.59
55291;BME280;41155;39.768;2.712;2023-04-01T04:48:12;101330.81;;;17.79;51.62
55291;BME280;41155;39.768;2.712;2023-04-01T04:50:41;101331.38;;;17.81;51.82
55291;BME280;41155;39.768;2.712;2023-04-01T04:53:11;101339.81;;;17.84;51.49
55291;BME280;41155;39.768;2.712;2023-04-01T04:55:37;101319.16;;;17.68;51.57
55291;BME280;41155;39.768;2.712;2023-04-01T04:58:03;101349.91;;;17.84;51.97
55291;BME280;41155;39.768;2.712;2023-04-01T05:00:28;101334.97;;;17.71;51.98
55291;BME280;41155;39.768;2.712;2023-04-01T05:02:53;101323.84;;;17.62;52.02
55291;BME280;41155;39.768;2.712;2023-04-01T05:05:19;101346.13;;;17.75;52.12
55291;BME280;41155;39.768;2.712;2023-04-01T05:07:45;101354.59;;;17.78;52.07
55291;BME280;41155;39.768;2.712;2023-04-01T05:10:10;101356.78;;;17.76;52.10
55291;BME280;41155;39.768;2.712;2023-04-01T05:12:35;101357.34;;;17.78;52.55
55291;BME280;41155;39.768;2.712;2023-04-01T05:15:04;101327.94;;;17.60;52.14
55291;BME280;41155;39.768;2.712;2023-04-01T05:17:30;101364.97;;;17.81;52.00
55291;BME280;41155;39.768;2.712;2023-04-01T05:19:56;101365.50;;;17.83;52.08
55291;BME280;41155;39.768;2.712;2023-04-01T05:22:21;101343.19;;;17.66;51.85
55291;BME280;41155;39.768;2.712;2023-04-01T05:24:47;101385.41;;;17.89;51.65
55291;BME280;41155;39.768;2.712;2023-04-01T05:27:12;101389.50;;;17.92;52.14
55291;BME280;41155;39.768;2.712;2023-04-01T05:29:38;101400.38;;;17.97;51.99
55291;BME280;41155;39.768;2.712;2023-04-01T05:32:03;101399.03;;;17.94;51.35
55291;BME280;41155;39.768;2.712;2023-04-01T05:34:29;101388.41;;;17.88;51.94
55291;BME280;41155;39.768;2.712;2023-04-01T05:36:54;101359.25;;;17.73;52.08
55291;BME280;41155;39.768;2.712;2023-04-01T05:39:20;101408.72;;;18.11;51.69
55291;BME280;41155;39.768;2.712;2023-04-01T05:41:45;101366.84;;;17.86;50.95
55291;BME280;41155;39.768;2.712;2023-04-01T05:44:12;101416.94;;;18.11;50.94
55291;BME280;41155;39.768;2.712;2023-04-01T05:46:37;101406.31;;;18.09;51.16
55291;BME280;41155;39.768;2.712;2023-04-01T05:49:03;101426.22;;;18.15;51.34
55291;BME280;41155;39.768;2.712;2023-04-01T05:51:28;101406.56;;;18.07;51.13
55291;BME280;41155;39.768;2.712;2023-04-01T05:53:54;101398.63;;;18.11;51.26
55291;BME280;41155;39.768;2.712;2023-04-01T05:56:19;101432.91;;;18.33;51.30
55291;BME280;41155;39.768;2.712;2023-04-01T05:58:51;101437.22;;;18.39;51.27
55291;BME280;41155;39.768;2.712;2023-04-01T06:01:16;101403.47;;;18.19;50.78
55291;BME280;41155;39.768;2.712;2023-04-01T06:03:43;101416.78;;;18.31;50.74
55291;BME280;41155;39.768;2.712;2023-04-01T06:06:14;101423.59;;;18.34;50.64
55291;BME280;41155;39.768;2.712;2023-04-01T06:08:41;101435.56;;;18.43;50.89
55291;BME280;41155;39.768;2.712;2023-04-01T06:11:12;101442.09;;;18.47;51.09
55291;BME280;41155;39.768;2.712;2023-04-01T06:14:10;101430.34;;;18.46;50.71
55291;BME280;41155;39.768;2.712;2023-04-01T06:27:50;101464.00;;;18.71;50.80
55291;BME280;41155;39.768;2.712;2023-04-01T06:46:58;101466.47;;;18.72;50.97
55291;BME280;41155;39.768;2.712;2023-04-01T06:49:44;101453.59;;;18.73;50.97
55291;BME280;41155;39.768;2.712;2023-04-01T06:57:48;101444.50;;;18.83;51.68
55291;BME280;41155;39.768;2.712;2023-04-01T07:00:36;101480.63;;;19.09;51.73
55291;BME280;41155;39.768;2.712;2023-04-01T07:03:18;101474.88;;;19.10;51.85
55291;BME280;41155;39.768;2.712;2023-04-01T07:05:45;101475.94;;;19.14;51.81
55291;BME280;41155;39.768;2.712;2023-04-01T07:08:18;101476.47;;;19.16;52.20
55291;BME280;41155;39.768;2.712;2023-04-01T07:13:27;101450.16;;;18.91;52.89
55291;BME280;41155;39.768;2.712;2023-04-01T07:16:03;101485.84;;;19.10;52.50
55291;BME280;41155;39.768;2.712;2023-04-01T07:18:47;101463.00;;;18.96;53.28
55291;BME280;41155;39.768;2.712;2023-04-01T07:21:23;101475.69;;;19.11;52.81
55291;BME280;41155;39.768;2.712;2023-04-01T07:23:51;101476.06;;;19.04;51.45
55291;BME280;41155;39.768;2.712;2023-04-01T07:26:22;101458.16;;;18.88;50.29
55291;BME280;41155;39.768;2.712;2023-04-01T07:28:51;101485.25;;;19.13;50.85
55291;BME280;41155;39.768;2.712;2023-04-01T07:36:48;101486.19;;;19.28;47.25
55291;BME280;41155;39.768;2.712;2023-04-01T07:42:07;101481.16;;;19.35;45.82
55291;BME280;41155;39.768;2.712;2023-04-01T07:50:11;101514.91;;;19.30;43.08
55291;BME280;41155;39.768;2.712;2023-04-01T07:55:18;101502.31;;;19.29;43.76
55291;BME280;41155;39.768;2.712;2023-04-01T08:04:25;101518.88;;;19.43;41.92
55291;BME280;41155;39.768;2.712;2023-04-01T08:17:26;101529.38;;;19.60;41.50
55291;BME280;41155;39.768;2.712;2023-04-01T08:22:45;101548.63;;;19.79;40.27
55291;BME280;41155;39.768;2.712;2023-04-01T08:25:20;101513.66;;;19.71;40.27
55291;BME280;41155;39.768;2.712;2023-04-01T08:30:44;101548.59;;;20.22;43.47
55291;BME280;41155;39.768;2.712;2023-04-01T08:33:24;101493.56;;;19.99;42.72
55291;BME280;41155;39.768;2.712;2023-04-01T08:35:56;101548.16;;;20.33;43.30
55291;BME280;41155;39.768;2.712;2023-04-01T08:38:29;101539.41;;;20.31;43.25
55291;BME280;41155;39.768;2.712;2023-04-01T08:52:36;101557.38;;;20.62;41.28
55291;BME280;41155;39.768;2.712;2023-04-01T09:00:48;101576.72;;;20.70;39.59
55291;BME280;41155;39.768;2.712;2023-04-01T09:03:37;101595.03;;;20.75;39.17
55291;BME280;41155;39.768;2.712;2023-04-01T09:18:03;101597.47;;;20.76;42.13
55291;BME280;41155;39.768;2.712;2023-04-01T09:28:59;101609.97;;;21.02;41.17
55291;BME280;41155;39.768;2.712;2023-04-01T09:37:34;101614.09;;;21.18;41.28
55291;BME280;41155;39.768;2.712;2023-04-01T09:45:01;101619.59;;;21.51;40.14
55291;BME280;41155;39.768;2.712;2023-04-01T09:50:24;101625.00;;;21.83;39.03
55291;BME280;41155;39.768;2.712;2023-04-01T09:55:55;101617.19;;;21.91;37.60
55291;BME280;41155;39.768;2.712;2023-04-01T10:01:39;101623.66;;;21.81;37.54
55291;BME280;41155;39.768;2.712;2023-04-01T10:46:14;101553.13;;;23.30;35.82
55291;BME280;41155;39.768;2.712;2023-04-01T10:58:13;101513.22;;;23.28;35.35
55291;BME280;41155;39.768;2.712;2023-04-01T11:33:46;101478.84;;;24.78;32.72
55291;BME280;41155;39.768;2.712;2023-04-01T11:41:40;101482.84;;;24.98;32.94
55291;BME280;41155;39.768;2.712;2023-04-01T11:44:22;101478.69;;;24.74;33.22
55291;BME280;41155;39.768;2.712;2023-04-01T12:08:44;101449.06;;;24.92;32.69
55291;BME280;41155;39.768;2.712;2023-04-01T12:11:39;101446.25;;;25.01;32.56
55291;BME280;41155;39.768;2.712;2023-04-01T12:30:35;101430.00;;;24.99;31.59
55291;BME280;41155;39.768;2.712;2023-04-01T12:36:02;101410.88;;;24.94;31.98
55291;BME280;41155;39.768;2.712;2023-04-01T12:38:51;101410.53;;;24.96;32.51
55291;BME280;41155;39.768;2.712;2023-04-01T12:41:36;101405.34;;;25.33;31.70
55291;BME280;41155;39.768;2.712;2023-04-01T12:44:17;101383.22;;;25.75;29.22
55291;BME280;41155;39.768;2.712;2023-04-01T13:19:49;101388.31;;;25.93;32.45
55291;BME280;41155;39.768;2.712;2023-04-01T13:22:45;101389.50;;;26.05;32.25
55291;BME280;41155;39.768;2.712;2023-04-01T13:25:28;101369.63;;;26.24;31.59
55291;BME280;41155;39.768;2.712;2023-04-01T13:35:52;101370.84;;;26.47;31.40
55291;BME280;41155;39.768;2.712;2023-04-01T13:44:22;101342.00;;;26.48;26.42
55291;BME280;41155;39.768;2.712;2023-04-01T13:51:06;101362.00;;;26.66;29.00
55291;BME280;41155;39.768;2.712;2023-04-01T14:27:41;101299.28;;;26.25;27.62
55291;BME280;41155;39.768;2.712;2023-04-01T14:30:27;101310.75;;;26.02;26.78
55291;BME280;41155;39.768;2.712;2023-04-01T14:36:32;101304.19;;;25.74;28.09
55291;BME280;41155;39.768;2.712;2023-04-01T14:47:51;101268.94;;;25.50;28.14
55291;BME280;41155;39.768;2.712;2023-04-01T14:50:28;101261.06;;;25.18;28.16
55291;BME280;41155;39.768;2.712;2023-04-01T15:08:29;101210.25;;;24.30;28.21
55291;BME280;41155;39.768;2.712;2023-04-01T15:30:09;101229.38;;;23.88;28.64
55291;BME280;41155;39.768;2.712;2023-04-01T15:35:42;101212.72;;;23.67;29.21
55291;BME280;41155;39.768;2.712;2023-04-01T15:40:49;101210.00;;;23.41;26.12
55291;BME280;41155;39.768;2.712;2023-04-01T15:43:31;101175.66;;;23.13;25.91
55291;BME280;41155;39.768;2.712;2023-04-01T15:52:05;101181.47;;;23.37;28.73
55291;BME280;41155;39.768;2.712;2023-04-01T15:57:29;101172.25;;;23.24;27.21
55291;BME280;41155;39.768;2.712;2023-04-01T16:21:51;101107.09;;;22.94;26.89
55291;BME280;41155;39.768;2.712;2023-04-01T16:29:55;101104.69;;;22.58;25.43
55291;BME280;41155;39.768;2.712;2023-04-01T16:32:30;101093.84;;;22.61;27.62
55291;BME280;41155;39.768;2.712;2023-04-01T16:49:03;101080.88;;;22.53;31.92
55291;BME280;41155;39.768;2.712;2023-04-01T16:54:47;101086.72;;;22.43;31.02
55291;BME280;41155;39.768;2.712;2023-04-01T16:57:23;101046.50;;;22.16;31.03
55291;BME280;41155;39.768;2.712;2023-04-01T17:02:49;101039.38;;;22.06;31.35
55291;BME280;41155;39.768;2.712;2023-04-01T17:05:18;101078.44;;;22.25;31.19
55291;BME280;41155;39.768;2.712;2023-04-01T17:13:40;101070.13;;;22.08;30.90
55291;BME280;41155;39.768;2.712;2023-04-01T17:19:24;101078.38;;;22.08;29.44
55291;BME280;41155;39.768;2.712;2023-04-01T17:30:19;101068.19;;;22.08;29.79
55291;BME280;41155;39.768;2.712;2023-04-01T17:35:33;101037.25;;;21.85;30.21
55291;BME280;41155;39.768;2.712;2023-04-01T17:45:55;101074.28;;;21.88;31.47
55291;BME280;41155;39.768;2.712;2023-04-01T17:51:01;101076.16;;;21.70;31.72
55291;BME280;41155;39.768;2.712;2023-04-01T17:56:17;101039.25;;;21.31;31.91
55291;BME280;41155;39.768;2.712;2023-04-01T17:58:46;101086.88;;;21.49;32.25
55291;BME280;41155;39.768;2.712;2023-04-01T18:01:40;101086.53;;;21.42;32.22
55291;BME280;41155;39.768;2.712;2023-04-01T18:23:58;101102.66;;;20.90;33.87
55291;BME280;41155;39.768;2.712;2023-04-01T18:31:33;101102.81;;;20.71;34.64
55291;BME280;41155;39.768;2.712;2023-04-01T18:34:17;101112.28;;;20.65;34.71
55291;BME280;41155;39.768;2.712;2023-04-01T18:36:54;101068.03;;;20.30;34.89
55291;BME280;41155;39.768;2.712;2023-04-01T18:39:40;101068.66;;;20.27;34.95
55291;BME280;41155;39.768;2.712;2023-04-01T18:42:14;101110.66;;;20.50;35.08
55291;BME280;41155;39.768;2.712;2023-04-01T18:44:55;101064.41;;;20.07;35.17
55291;BME280;41155;39.768;2.712;2023-04-01T18:50:41;101111.53;;;20.23;35.46
55291;BME280;41155;39.768;2.712;2023-04-01T18:53:31;101100.66;;;20.04;35.44
55291;BME280;41155;39.768;2.712;2023-04-01T18:56:13;101076.84;;;19.77;35.39
55291;BME280;41155;39.768;2.712;2023-04-01T19:01:26;101107.78;;;19.77;36.11
55291;BME280;41155;39.768;2.712;2023-04-01T19:06:30;101103.31;;;19.68;36.14
55291;BME280;41155;39.768;2.712;2023-04-01T19:09:23;101110.88;;;19.57;35.99
55291;BME280;41155;39.768;2.712;2023-04-01T19:26:05;101077.56;;;19.03;37.41
55291;BME280;41155;39.768;2.712;2023-04-01T19:54:11;101101.56;;;18.73;40.65
55291;BME280;41155;39.768;2.712;2023-04-01T19:59:30;101072.53;;;18.78;40.67
55291;BME280;41155;39.768;2.712;2023-04-01T20:04:40;101091.81;;;18.86;41.33
55291;BME280;41155;39.768;2.712;2023-04-01T20:07:13;101070.50;;;18.64;41.70
55291;BME280;41155;39.768;2.712;2023-04-01T20:14:58;101066.66;;;18.65;42.46
55291;BME280;41155;39.768;2.712;2023-04-01T20:20:18;101049.38;;;18.51;41.90
55291;BME280;41155;39.768;2.712;2023-04-01T20:36:16;100968.19;;;18.33;42.32
55291;BME280;41155;39.768;2.712;2023-04-01T20:52:26;101040.34;;;17.65;45.85
55291;BME280;41155;39.768;2.712;2023-04-01T20:58:24;101000.53;;;17.39;45.96
55291;BME280;41155;39.768;2.712;2023-04-01T21:18:21;101049.78;;;17.53;47.90
55291;BME280;41155;39.768;2.712;2023-04-01T21:35:06;101101.97;;;17.47;52.07
55291;BME280;41155;39.768;2.712;2023-04-01T21:48:42;101304.41;;;18.33;49.64
55291;BME280;41155;39.768;2.712;2023-04-01T21:51:41;101340.91;;;18.47;50.38
55291;BME280;41155;39.768;2.712;2023-04-01T22:07:19;101419.94;;;18.14;56.29
55291;BME280;41155;39.768;2.712;2023-04-01T22:12:35;101440.75;;;18.05;57.67
55291;BME280;41155;39.768;2.712;2023-04-01T22:20:28;101410.88;;;17.74;58.91
55291;BME280;41155;39.768;2.712;2023-04-01T22:28:32;101383.25;;;17.26;59.13
55291;BME280;41155;39.768;2.712;2023-04-01T22:31:02;101373.22;;;17.16;60.15
55291;BME280;41155;39.768;2.712;2023-04-01T22:39:02;101326.31;;;17.09;60.19
55291;BME280;41155;39.768;2.712;2023-04-01T22:44:02;101278.13;;;16.89;60.38
55291;BME280;41155;39.768;2.712;2023-04-01T22:46:56;101310.81;;;17.00;60.63
55291;BME280;41155;39.768;2.712;2023-04-01T22:52:21;101312.78;;;16.84;62.89
55291;BME280;41155;39.768;2.712;2023-04-01T22:54:52;101291.78;;;16.84;63.90
55291;BME280;41155;39.768;2.712;2023-04-01T23:00:26;101333.16;;;17.07;61.99
55291;BME280;41155;39.768;2.712;2023-04-01T23:03:19;101346.16;;;17.30;58.89
55291;BME280;41155;39.768;2.712;2023-04-01T23:05:50;101316.00;;;17.51;56.47
55291;BME280;41155;39.768;2.712;2023-04-01T23:11:22;101276.25;;;17.69;56.41
55291;BME280;41155;39.768;2.712;2023-04-01T23:13:55;101243.41;;;17.45;57.30
55291;BME280;41155;39.768;2.712;2023-04-01T23:16:29;101239.16;;;17.28;58.92
55291;BME280;41155;39.768;2.712;2023-04-01T23:21:39;101238.84;;;16.85;61.15
55291;BME280;41155;39.768;2.712;2023-04-01T23:26:53;101290.72;;;16.60;60.14
55291;BME280;41155;39.768;2.712;2023-04-01T23:29:20;101222.66;;;16.39;60.53
55291;BME280;41155;39.768;2.712;2023-04-01T23:32:00;101227.06;;;16.25;62.34
55291;BME280;41155;39.768;2.712;2023-04-01T23:34:33;101231.44;;;16.11;62.77
55291;BME280;41155;39.768;2.712;2023-04-01T23:37:12;101214.59;;;16.03;62.77
55291;BME280;41155;39.768;2.712;2023-04-01T23:39:44;101150.34;;;15.87;62.82
55291;BME280;41155;39.768;2.712;2023-04-01T23:42:29;101111.16;;;15.88;61.37
55291;BME280;41155;39.768;2.712;2023-04-01T23:45:20;101088.03;;;15.45;62.19
55291;BME280;41155;39.768;2.712;2023-04-01T23:47:47;101106.25;;;15.65;63.85
55291;BME280;41155;39.768;2.712;2023-04-01T23:50:22;101093.78;;;15.48;64.83
55291;BME280;41155;39.768;2.712;2023-04-01T23:52:53;101098.91;;;15.65;64.45
55291;BME280;41155;39.768;2.712;2023-04-01T23:55:26;101057.84;;;15.51;64.73
55291;BME280;41155;39.768;2.712;2023-04-01T23:58:06;101075.25;;;15.55;64.92
